Time;durP1;ratioP1;P1;durP2;ratioP2;P2;SDS_P1;SDS_P2;PMS_P1;PMS_P2;Temp;Humidity;BMP_temperature;BMP_pressure;BME280_temperature;BME280_humidity;BME280_pressure;Samples;Min_cycle;Max_cycle;Signal;HPM_P1;HPM_P2
2022/05/28 00:01:30;;;;;;;19.35;7.88;;;;;;;22.39;53.32;94965.78;4943489;29;20054;-81
2022/05/28 00:03:59;;;;;;;31.20;8.32;;;;;;;22.69;53.41;95010.06;4942739;29;20532;-81
2022/05/28 00:06:28;;;;;;;38.45;7.65;;;;;;;22.75;53.29;95014.06;4942435;29;20556;-82
2022/05/28 00:08:56;;;;;;;29.75;8.40;;;;;;;22.65;52.73;94988.38;4942568;29;20122;-82
2022/05/28 00:11:29;;;;;;;22.30;7.85;;;;;;;22.49;53.02;94959.81;4936605;29;20035;-82
2022/05/28 00:13:54;;;;;;;21.25;7.07;;;;;;;22.39;53.31;94963.88;4915445;29;20501;-81
2022/05/28 00:16:20;;;;;;;28.85;7.00;;;;;;;22.59;52.78;94988.97;4925868;29;20052;-81
2022/05/28 00:18:47;;;;;;;28.02;7.97;;;;;;;22.55;52.89;94980.81;4942652;29;20046;-81
2022/05/28 00:21:13;;;;;;;79.80;10.65;;;;;;;22.85;52.91;95015.44;4943076;29;20514;-81
2022/05/28 00:23:40;;;;;;;121.20;15.43;;;;;;;22.57;53.34;94997.47;4925717;29;20490;-81
2022/05/28 00:26:06;;;;;;;118.50;15.88;;;;;;;22.70;53.42;95038.66;4925011;29;20043;-81
2022/05/28 00:28:33;;;;;;;75.82;11.60;;;;;;;22.05;54.27;94972.75;4942881;28;20043;-81
2022/05/28 00:30:59;;;;;;;54.40;9.85;;;;;;;22.64;53.62;95030.06;4941167;29;20047;-81
2022/05/28 00:33:26;;;;;;;32.85;8.25;;;;;;;22.62;53.45;95020.72;4942786;29;20089;-81
2022/05/28 00:35:52;;;;;;;33.40;7.38;;;;;;;22.14;54.28;94984.13;4943587;29;20043;-81
2022/05/28 00:38:18;;;;;;;29.00;7.43;;;;;;;22.26;54.17;94984.81;4943539;29;20168;-81
2022/05/28 00:40:49;;;;;;;26.50;5.95;;;;;;;22.32;54.29;94996.13;4925815;29;20039;-82
2022/05/28 00:43:15;;;;;;;20.90;6.55;;;;;;;21.98;55.53;94999.56;4925323;29;20039;-81
2022/05/28 00:45:41;;;;;;;23.95;6.68;;;;;;;22.04;55.13;94998.97;4926751;29;20521;-81
2022/05/28 00:48:09;;;;;;;17.13;6.63;;;;;;;21.73;55.74;94966.56;4925962;29;20322;-81
2022/05/28 00:50:36;;;;;;;17.88;6.65;;;;;;;21.95;55.64;95011.84;4926405;28;20047;-81
2022/05/28 00:53:03;;;;;;;19.95;5.97;;;;;;;21.80;55.33;94975.63;4942724;29;20557;-81
2022/05/28 00:55:31;;;;;;;13.50;6.03;;;;;;;21.07;55.73;94897.81;4942495;29;20050;-81
2022/05/28 00:57:59;;;;;;;19.08;5.63;;;;;;;21.56;55.63;94952.28;4942095;29;20114;-81
2022/05/28 01:00:24;;;;;;;20.67;6.00;;;;;;;21.66;55.38;94961.78;4942609;29;20042;-81
2022/05/28 01:03:18;;;;;;;19.65;6.15;;;;;;;21.76;54.77;94949.66;4941423;29;20422;-81
2022/05/28 01:06:05;;;;;;;27.80;7.15;;;;;;;22.13;54.40;95001.47;4942524;29;20122;-82
2022/05/28 01:09:27;;;;;;;23.67;7.10;;;;;;;22.05;54.42;94999.75;4940187;28;20058;-81
2022/05/28 01:12:05;;;;;;;28.25;6.53;;;;;;;21.88;54.79;95025.16;4847971;29;20037;-81
2022/05/28 01:15:08;;;;;;;17.50;4.88;;;;;;;21.65;53.08;95027.69;4914588;28;20047;-81
2022/05/28 01:17:45;;;;;;;10.18;4.63;;;;;;;21.74;52.82;95025.56;4931720;29;20145;-82
2022/05/28 01:20:20;;;;;;;13.90;4.78;;;;;;;21.41;52.71;94992.75;4942209;29;20050;-81
2022/05/28 01:23:12;;;;;;;9.75;4.95;;;;;;;21.50;53.09;95033.84;4924609;29;20569;-81
2022/05/28 01:25:52;;;;;;;15.70;5.57;;;;;;;20.68;54.22;95049.59;4924935;29;20580;-81
2022/05/28 01:28:24;;;;;;;17.15;5.25;;;;;;;20.17;55.56;95059.94;4888904;29;20082;-81
2022/05/28 01:30:51;;;;;;;11.18;5.47;;;;;;;19.74;56.43;95022.81;4910193;29;20137;-81
2022/05/28 01:33:17;;;;;;;12.63;5.40;;;;;;;19.59;56.32;94993.88;4924376;29;20459;-80
2022/05/28 01:35:45;;;;;;;11.98;5.78;;;;;;;19.99;56.98;95093.59;4942030;29;20043;-81
2022/05/28 01:38:12;;;;;;;16.55;5.90;;;;;;;19.87;57.50;95086.28;4941092;29;20409;-81
2022/05/28 01:40:40;;;;;;;11.77;5.70;;;;;;;19.79;57.38;95064.84;4924013;29;20130;-81
2022/05/28 01:43:09;;;;;;;23.15;7.07;;;;;;;20.10;56.91;95075.88;4897448;29;20032;-81
2022/05/28 01:45:39;;;;;;;29.40;7.53;;;;;;;19.31;56.46;94921.06;4918822;29;20085;-82
2022/05/28 01:48:07;;;;;;;36.50;8.07;;;;;;;20.14;56.57;95055.22;4941454;29;20254;-82
2022/05/28 01:50:38;;;;;;;34.88;7.20;;;;;;;19.64;56.54;94977.50;4923448;29;20081;-82
2022/05/28 01:53:07;;;;;;;23.25;7.85;;;;;;;20.20;56.74;95071.97;4923385;29;20164;-81
2022/05/28 01:55:38;;;;;;;19.05;6.57;;;;;;;19.66;56.37;94991.41;4923354;28;20121;-81
2022/05/28 01:58:04;;;;;;;19.45;6.25;;;;;;;19.94;56.42;95013.84;4922922;29;20058;-81
2022/05/28 02:00:29;;;;;;;17.65;6.03;;;;;;;19.98;55.75;94981.69;4936030;29;20036;-82
2022/05/28 02:03:00;;;;;;;17.83;6.28;;;;;;;20.00;55.76;94961.34;4921644;29;20051;-82
2022/05/28 02:05:26;;;;;;;17.38;6.25;;;;;;;20.44;56.39;95079.28;4912725;29;20126;-81
2022/05/28 02:07:52;;;;;;;20.35;7.28;;;;;;;19.61;56.50;94943.19;4940266;28;20077;-82
2022/05/28 02:10:20;;;;;;;19.40;6.65;;;;;;;20.34;56.14;95040.13;4940523;29;20050;-81
2022/05/28 02:13:20;;;;;;;23.45;7.00;;;;;;;20.78;55.61;95068.78;4940913;29;20410;-81
2022/05/28 02:15:53;;;;;;;63.40;10.45;;;;;;;19.95;55.63;94952.75;4940698;29;20527;-82
2022/05/28 02:18:30;;;;;;;27.35;8.07;;;;;;;20.63;54.78;95020.19;4940776;28;20034;-81
2022/05/28 02:21:11;;;;;;;17.15;7.07;;;;;;;21.24;54.29;95088.22;4940459;29;20521;-81
2022/05/28 02:23:56;;;;;;;25.98;6.38;;;;;;;20.74;54.08;95013.22;4940562;29;20527;-81
2022/05/28 02:26:31;;;;;;;15.88;6.43;;;;;;;21.45;53.59;95075.31;4940828;29;20051;-81
2022/05/28 02:29:00;;;;;;;21.15;6.60;;;;;;;21.21;53.21;95008.00;4939008;29;20146;-81
2022/05/28 02:31:31;;;;;;;25.05;7.25;;;;;;;21.72;53.35;95062.16;4922910;28;20046;-82
2022/05/28 02:33:57;;;;;;;20.77;6.90;;;;;;;21.71;53.15;95068.69;4922992;29;20452;-82
2022/05/28 02:36:24;;;;;;;22.73;7.65;;;;;;;20.74;53.39;94957.44;4940578;29;20061;-82
2022/05/28 02:38:50;;;;;;;20.13;6.35;;;;;;;20.74;54.25;95043.66;4940818;29;20039;-82
2022/05/28 02:41:16;;;;;;;25.55;7.95;;;;;;;20.91;54.19;95039.09;4923057;29;20125;-82
2022/05/28 02:43:42;;;;;;;24.10;8.13;;;;;;;21.01;54.49;95058.28;4923302;29;20082;-83
2022/05/28 02:46:08;;;;;;;55.03;10.50;;;;;;;20.61;54.54;95055.56;4940848;29;20039;-81
2022/05/28 02:48:34;;;;;;;67.40;11.38;;;;;;;20.68;53.75;95044.22;4939716;29;20038;-81
2022/05/28 02:51:11;;;;;;;101.25;15.38;;;;;;;20.00;54.56;94985.59;4940675;29;20058;-82
2022/05/28 02:53:37;;;;;;;64.55;10.30;;;;;;;20.23;54.17;94977.03;4922879;29;20110;-81
2022/05/28 02:56:03;;;;;;;48.65;8.32;;;;;;;20.10;54.28;94953.94;4923381;29;20191;-81
2022/05/28 02:58:29;;;;;;;19.52;6.35;;;;;;;20.44;53.83;94988.50;4940427;29;20497;-81
2022/05/28 03:00:55;;;;;;;29.75;7.15;;;;;;;20.82;53.40;95025.00;4939704;29;20127;-82
2022/05/28 03:03:21;;;;;;;65.68;11.45;;;;;;;20.77;53.02;95010.63;4939957;29;20051;-82
2022/05/28 03:05:48;;;;;;;65.47;11.13;;;;;;;20.81;53.18;95016.13;4940073;29;20151;-81
2022/05/28 03:08:14;;;;;;;74.20;11.82;;;;;;;20.77;52.95;95023.31;4922513;29;20039;-82
2022/05/28 03:10:39;;;;;;;29.50;5.88;;;;;;;21.10;51.67;95045.44;4939168;29;20031;-82
2022/05/28 03:13:06;;;;;;;20.27;5.78;;;;;;;20.91;52.16;95012.13;4939565;29;20027;-81
2022/05/28 03:15:32;;;;;;;20.83;5.90;;;;;;;20.53;51.78;94923.69;4922698;28;20027;-80
2022/05/28 03:17:59;;;;;;;58.33;9.75;;;;;;;20.86;51.82;94945.78;4921918;29;20054;-82
2022/05/28 03:20:26;;;;;;;58.85;8.10;;;;;;;21.63;51.93;95046.13;4922719;29;20041;-81
2022/05/28 03:22:51;;;;;;;45.80;8.77;;;;;;;21.75;51.62;95056.03;4939960;29;20046;-82
2022/05/28 03:25:17;;;;;;;51.50;8.30;;;;;;;21.86;51.30;95060.59;4939184;29;20538;-81
2022/05/28 03:27:42;;;;;;;157.90;20.48;;;;;;;21.69;51.17;95023.13;4939489;29;20553;-81
2022/05/28 03:30:09;;;;;;;116.03;15.60;;;;;;;21.55;50.96;95014.69;4939465;28;20488;-82
2022/05/28 03:32:34;;;;;;;33.95;8.35;;;;;;;21.70;51.01;95002.34;4937800;29;20059;-82
2022/05/28 03:35:00;;;;;;;31.58;6.22;;;;;;;21.78;51.46;95014.88;4939864;29;20664;-81
2022/05/28 03:37:25;;;;;;;14.93;5.50;;;;;;;21.72;51.36;94986.59;4939560;29;20147;-81
2022/05/28 03:39:50;;;;;;;19.65;5.97;;;;;;;21.62;51.39;94974.38;4922519;29;20421;-82
2022/05/28 03:42:16;;;;;;;16.00;6.03;;;;;;;21.69;51.25;94984.56;4921256;29;20050;-82
2022/05/28 03:44:41;;;;;;;17.75;4.78;;;;;;;21.81;50.95;94981.78;4921893;29;20042;-82
2022/05/28 03:47:07;;;;;;;14.77;5.32;;;;;;;22.02;50.92;94995.81;4922257;29;20860;-81
2022/05/28 03:49:37;;;;;;;17.95;5.45;;;;;;;22.26;50.86;95038.06;4922431;29;20125;-81
2022/05/28 03:52:03;;;;;;;13.18;4.88;;;;;;;21.63;51.15;94948.19;4921822;29;20514;-81
2022/05/28 03:54:29;;;;;;;16.10;4.93;;;;;;;21.53;51.04;94947.56;4934639;29;20552;-82
2022/05/28 03:57:04;;;;;;;16.08;4.78;;;;;;;21.57;51.51;94955.78;4908347;29;20042;-81
2022/05/28 03:59:29;;;;;;;12.98;5.25;;;;;;;22.00;51.86;95021.59;4922098;29;20197;-82
2022/05/28 04:01:55;;;;;;;14.73;5.22;;;;;;;21.88;52.06;94987.38;4939311;29;20442;-81
2022/05/28 04:04:21;;;;;;;15.20;5.13;;;;;;;22.14;51.98;95008.44;4939170;29;20027;-82
2022/05/28 04:06:47;;;;;;;15.50;5.78;;;;;;;22.16;52.04;95017.75;4940066;29;20039;-82
2022/05/28 04:09:12;;;;;;;13.88;4.88;;;;;;;21.68;52.17;94923.63;4921576;29;20035;-81
2022/05/28 04:11:38;;;;;;;13.63;5.25;;;;;;;21.78;51.52;94929.28;4939754;29;20054;-82
2022/05/28 04:14:05;;;;;;;14.68;5.85;;;;;;;22.53;51.22;95020.13;4939471;29;20043;-82
2022/05/28 04:16:31;;;;;;;10.52;4.80;;;;;;;22.16;50.80;94952.94;4939504;29;20039;-82
2022/05/28 04:18:57;;;;;;;16.50;5.05;;;;;;;22.32;50.54;94969.13;4922295;29;20596;-82
2022/05/28 04:21:22;;;;;;;14.02;5.00;;;;;;;22.78;50.12;95024.19;4921788;28;20070;-82
2022/05/28 04:23:48;;;;;;;18.73;5.53;;;;;;;22.87;49.90;95040.22;4920062;29;20039;-83
2022/05/28 04:26:13;;;;;;;16.77;5.18;;;;;;;22.46;48.92;95088.31;4923216;29;20122;-81
2022/05/28 04:28:39;;;;;;;21.90;5.80;;;;;;;21.87;51.37;95126.97;4939383;29;20035;-81
2022/05/28 04:31:04;;;;;;;15.02;5.45;;;;;;;20.60;52.39;94999.31;4939999;29;20039;-81
2022/05/28 04:33:30;;;;;;;13.30;4.90;;;;;;;20.91;51.81;94990.56;4938654;29;20062;-81
2022/05/28 04:35:55;;;;;;;14.95;4.57;;;;;;;21.61;51.79;95026.00;4939634;29;20517;-82
2022/05/28 04:38:21;;;;;;;22.05;5.10;;;;;;;21.21;51.91;94912.84;4940338;29;20034;-82
2022/05/28 04:40:46;;;;;;;14.70;4.70;;;;;;;21.41;52.23;94920.69;4939828;29;20051;-82
2022/05/28 04:43:12;;;;;;;12.82;4.10;;;;;;;21.83;51.98;94990.31;4941911;28;20449;-81
2022/05/28 04:45:37;;;;;;;10.35;5.28;;;;;;;21.39;51.67;94946.44;4930857;29;20040;-82
2022/05/28 04:48:03;;;;;;;19.77;5.47;;;;;;;21.42;51.36;94978.13;4935873;28;20511;-82
2022/05/28 04:50:29;;;;;;;17.10;5.75;;;;;;;21.34;51.90;94960.97;4942761;29;20455;-82
2022/05/28 04:52:55;;;;;;;15.20;5.55;;;;;;;21.63;51.93;95004.84;4926403;29;20063;-81
2022/05/28 04:55:20;;;;;;;14.07;5.25;;;;;;;21.22;52.18;94957.53;4940014;29;20027;-82
2022/05/28 04:57:46;;;;;;;16.35;5.57;;;;;;;21.30;53.45;95038.31;4942720;29;20517;-81
2022/05/28 05:00:15;;;;;;;23.98;6.15;;;;;;;21.42;52.86;95003.19;4924981;29;20031;-81
2022/05/28 05:02:41;;;;;;;16.05;5.30;;;;;;;21.81;53.48;95051.97;4942411;29;20390;-82
2022/05/28 05:05:07;;;;;;;16.65;5.72;;;;;;;21.48;53.86;95054.97;4924320;29;20167;-81
2022/05/28 05:07:32;;;;;;;26.70;6.30;;;;;;;21.59;54.03;95055.25;4941426;29;20039;-81
2022/05/28 05:09:58;;;;;;;18.92;6.32;;;;;;;21.06;54.70;95003.31;4925001;29;20047;-82
2022/05/28 05:12:24;;;;;;;21.77;6.03;;;;;;;21.23;54.56;95005.75;4942550;29;20113;-82
2022/05/28 05:14:49;;;;;;;16.77;6.10;;;;;;;21.02;54.41;94999.75;4925586;29;20461;-82
2022/05/28 05:17:15;;;;;;;17.25;5.88;;;;;;;21.34;54.65;95044.59;4924943;29;20422;-82
2022/05/28 05:19:40;;;;;;;20.98;5.57;;;;;;;21.67;54.54;95073.19;4942968;28;20039;-82
2022/05/28 05:22:06;;;;;;;15.15;6.03;;;;;;;21.61;55.35;95053.78;4939997;29;20035;-82
2022/05/28 05:24:33;;;;;;;19.38;6.28;;;;;;;20.97;55.62;94968.44;4924481;29;20836;-82
2022/05/28 05:27:00;;;;;;;22.15;6.10;;;;;;;21.26;55.95;95045.53;4924959;29;20545;-82
2022/05/28 05:29:26;;;;;;;21.42;6.70;;;;;;;21.35;54.97;95032.69;4924481;29;20038;-82
2022/05/28 05:31:52;;;;;;;17.02;6.75;;;;;;;21.11;55.35;95014.66;4924672;29;20031;-82
2022/05/28 05:34:17;;;;;;;16.40;6.30;;;;;;;21.41;55.01;95031.28;4942323;29;20118;-81
2022/05/28 05:36:42;;;;;;;30.92;8.25;;;;;;;21.74;54.73;95100.38;4923430;29;20148;-81
2022/05/28 05:39:08;;;;;;;17.13;8.00;;;;;;;21.30;54.96;95070.66;4923956;29;20039;-81
2022/05/28 05:41:39;;;;;;;20.65;7.22;;;;;;;21.32;54.88;95038.75;4905501;29;20152;-82
2022/05/28 05:44:04;;;;;;;17.63;7.47;;;;;;;21.69;55.08;95092.53;4941263;28;20039;-82
2022/05/28 05:46:30;;;;;;;20.42;6.68;;;;;;;21.48;54.82;95028.78;4923835;29;20326;-82
2022/05/28 05:48:55;;;;;;;18.98;6.75;;;;;;;21.94;54.39;95078.53;4923897;29;20042;-81
2022/05/28 05:51:21;;;;;;;15.32;6.57;;;;;;;21.62;54.08;95006.78;4924221;29;20031;-82
2022/05/28 05:53:46;;;;;;;22.13;6.32;;;;;;;22.02;54.43;95073.34;4916859;29;20024;-81
2022/05/28 05:56:12;;;;;;;14.80;7.22;;;;;;;22.17;54.14;95076.06;4929923;29;20028;-82
2022/05/28 05:58:38;;;;;;;17.25;6.20;;;;;;;21.97;53.39;95025.03;4923449;29;20051;-82
2022/05/28 06:01:05;;;;;;;14.23;6.85;;;;;;;22.12;52.78;95021.53;4941460;29;20035;-82
2022/05/28 06:03:30;;;;;;;16.77;6.25;;;;;;;22.08;52.85;95005.22;4941971;29;20102;-82
2022/05/28 06:06:02;;;;;;;21.35;7.25;;;;;;;22.26;53.34;95065.06;4941719;29;20123;-82
2022/05/28 06:08:28;;;;;;;23.45;7.38;;;;;;;21.62;54.75;94997.88;4941070;29;20058;-81
2022/05/28 06:10:54;;;;;;;20.45;7.25;;;;;;;21.83;54.76;95001.88;4941164;29;20036;-82
2022/05/28 06:13:19;;;;;;;18.85;7.43;;;;;;;21.47;55.98;94973.25;4923594;29;20031;-81
2022/05/28 06:15:45;;;;;;;16.92;8.38;;;;;;;22.00;56.03;95029.69;4939178;29;20042;-82
2022/05/28 06:18:13;;;;;;;20.60;7.68;;;;;;;21.56;56.51;94973.09;4923562;29;20035;-82
2022/05/28 06:20:39;;;;;;;21.45;8.55;;;;;;;22.10;56.50;95040.78;4940806;29;20128;-82
2022/05/28 06:23:04;;;;;;;21.40;8.20;;;;;;;22.18;56.22;95022.81;4940920;29;20624;-82
2022/05/28 06:25:29;;;;;;;10.73;7.03;;;;;;;21.38;55.56;94877.44;4941377;29;20039;-82
2022/05/28 06:27:55;;;;;;;15.40;7.60;;;;;;;22.22;54.91;94997.44;4923911;29;20353;-81
2022/05/28 06:30:22;;;;;;;16.77;6.90;;;;;;;22.35;55.61;95035.19;4923320;29;20151;-82
2022/05/28 06:32:48;;;;;;;19.60;7.82;;;;;;;22.37;55.30;95022.88;4940296;29;20303;-82
2022/05/28 06:35:13;;;;;;;18.73;7.65;;;;;;;21.93;55.63;94958.19;4923056;29;20454;-82
2022/05/28 06:37:38;;;;;;;13.25;6.80;;;;;;;22.25;55.44;94979.75;4922950;28;20068;-82
2022/05/28 06:40:05;;;;;;;14.93;7.20;;;;;;;22.33;56.18;94989.59;4940362;29;20042;-82
2022/05/28 06:42:30;;;;;;;21.45;7.57;;;;;;;22.37;56.00;94960.72;4940432;29;20142;-81
2022/05/28 06:44:56;;;;;;;16.52;7.60;;;;;;;22.29;56.03;94942.78;4940213;29;20142;-82
2022/05/28 06:47:22;;;;;;;21.92;7.65;;;;;;;22.78;56.04;95002.56;4923082;29;20577;-81
2022/05/28 06:51:01;;;;;;;19.70;7.95;;;;;;;22.67;55.26;94952.84;4922379;29;20450;-82
2022/05/28 06:52:33;;;;;;;24.83;8.32;;;;;;;22.92;55.23;94956.09;4905970;29;20239;-81
2022/05/28 06:54:58;;;;;;;30.08;8.32;;;;;;;22.89;55.73;94948.69;4926223;29;20058;-82
2022/05/28 06:57:24;;;;;;;29.60;8.23;;;;;;;23.18;55.39;94974.38;4934088;29;20486;-82
2022/05/28 06:59:49;;;;;;;20.10;6.68;;;;;;;23.55;54.09;94988.22;4910785;29;20047;-82
2022/05/28 07:02:15;;;;;;;26.98;7.05;;;;;;;22.97;52.02;94916.00;4923565;29;20423;-81
2022/05/28 07:04:40;;;;;;;16.10;5.88;;;;;;;23.68;51.95;95001.22;4925205;28;20130;-81
2022/05/28 07:07:06;;;;;;;21.95;6.85;;;;;;;23.75;51.64;94981.59;4925064;29;20043;-82
2022/05/28 07:09:31;;;;;;;15.95;6.22;;;;;;;23.38;52.50;94930.69;4923440;29;20477;-82
2022/05/28 07:11:57;;;;;;;19.98;6.20;;;;;;;23.80;51.60;94976.63;4940987;29;20094;-81
2022/05/28 07:14:22;;;;;;;20.13;6.88;;;;;;;23.50;51.77;94931.69;4943661;29;20039;-82
2022/05/28 07:16:47;;;;;;;14.82;5.65;;;;;;;23.34;52.27;94900.09;4944041;29;20058;-81
2022/05/28 07:19:13;;;;;;;19.80;7.43;;;;;;;23.63;52.38;94930.34;4886981;29;20107;-82
2022/05/28 07:21:38;;;;;;;17.52;5.63;;;;;;;23.76;52.60;94932.50;4940689;29;20043;-82
2022/05/28 07:24:04;;;;;;;18.02;6.32;;;;;;;23.80;52.05;94952.28;4940226;29;20110;-82
2022/05/28 07:26:30;;;;;;;17.55;5.90;;;;;;;23.79;52.01;94926.38;4936111;29;20569;-82
2022/05/28 07:28:55;;;;;;;18.98;6.80;;;;;;;23.57;51.21;94864.13;4908519;29;20042;-83
2022/05/28 07:31:21;;;;;;;15.00;6.68;;;;;;;23.99;52.29;94915.41;4939950;29;20039;-82
2022/05/28 07:33:49;;;;;;;21.77;6.32;;;;;;;24.51;52.45;94957.97;4940202;29;20155;-82
2022/05/28 07:36:20;;;;;;;17.33;6.72;;;;;;;24.35;50.66;94925.63;4922082;29;20031;-82
2022/05/28 07:38:46;;;;;;;;;;;;;;;24.50;51.00;94953.72;4940210;29;20283;-81
2022/05/28 07:41:18;;;;;;;21.00;6.88;;;;;;;24.46;50.40;94901.41;4922014;29;19944;-81
2022/05/28 07:43:44;;;;;;;13.52;6.22;;;;;;;24.25;51.14;94890.28;4939308;29;20102;-82
2022/05/28 07:46:18;;;;;;;15.23;6.32;;;;;;;24.86;50.45;94944.09;4922342;29;20035;-83
2022/05/28 07:48:43;;;;;;;17.45;6.03;;;;;;;24.26;49.66;94875.59;4922095;29;20035;-81
2022/05/28 07:51:09;;;;;;;21.05;6.43;;;;;;;24.72;49.21;94916.81;4939349;29;20050;-81
2022/05/28 07:53:34;;;;;;;20.05;6.28;;;;;;;24.71;49.41;94886.22;4939850;28;20047;-82
2022/05/28 07:56:04;;;;;;;19.85;6.72;;;;;;;24.92;49.78;94923.66;4939573;29;20027;-82
2022/05/28 07:58:29;;;;;;;17.17;5.90;;;;;;;24.49;47.91;94847.22;4921731;29;20445;-82
2022/05/28 08:00:56;;;;;;;14.38;5.47;;;;;;;25.09;47.23;94916.88;4938382;29;20039;-82
2022/05/28 08:03:22;;;;;;;18.92;5.65;;;;;;;25.03;48.37;94904.78;4922345;29;20062;-81
2022/05/28 08:05:50;;;;;;;15.75;5.45;;;;;;;24.35;46.67;94768.44;4921778;29;20135;-81
2022/05/28 08:08:18;;;;;;;17.58;5.18;;;;;;;25.36;46.56;94935.38;4940519;29;20540;-81
2022/05/28 08:10:43;;;;;;;17.17;5.28;;;;;;;25.26;47.01;94913.53;4922768;29;20189;-81
2022/05/28 08:13:11;;;;;;;17.10;5.38;;;;;;;25.36;47.48;94915.59;4922367;29;20249;-81
2022/05/28 08:15:40;;;;;;;26.35;5.85;;;;;;;25.66;45.92;94920.91;4922346;29;20150;-82
2022/05/28 08:18:06;;;;;;;14.80;4.95;;;;;;;25.42;44.10;94873.38;4927037;28;20051;-82
2022/05/28 08:23:18;;;;;;;18.88;4.53;;;;;;;25.77;42.75;94921.81;4941042;29;20487;-82
2022/05/28 08:25:45;;;;;;;19.90;5.15;;;;;;;25.93;42.24;94916.88;4910542;29;20576;-81
2022/05/28 08:28:12;;;;;;;22.30;5.38;;;;;;;25.24;42.20;94810.03;4926071;29;20027;-82
2022/05/28 08:30:39;;;;;;;19.15;5.03;;;;;;;25.93;42.39;94897.09;4926013;29;20545;-82
2022/05/28 08:33:06;;;;;;;18.73;4.72;;;;;;;25.64;43.19;94861.53;4925836;29;20046;-82
2022/05/28 08:35:32;;;;;;;16.10;4.72;;;;;;;26.17;41.97;94912.75;4925223;28;20039;-82
2022/05/28 08:38:06;;;;;;;16.92;4.95;;;;;;;26.14;41.49;94894.50;4925083;29;20506;-82
2022/05/28 08:40:37;;;;;;;24.80;5.63;;;;;;;26.43;41.16;94911.75;4925741;29;20063;-82
2022/05/28 08:43:02;;;;;;;34.53;5.80;;;;;;;25.89;42.60;94815.53;4943189;29;20043;-81
2022/05/28 08:45:32;;;;;;;19.58;5.13;;;;;;;26.35;44.02;94904.72;4925860;29;20476;-82
2022/05/28 08:47:58;;;;;;;17.27;5.28;;;;;;;26.20;42.34;94859.56;4925216;29;20403;-81
2022/05/28 08:50:24;;;;;;;22.45;5.38;;;;;;;26.55;42.50;94900.53;4924806;29;20042;-82
2022/05/28 08:53:13;;;;;;;23.40;6.47;;;;;;;26.70;41.54;94913.03;4925261;29;20487;-81
2022/05/28 08:55:46;;;;;;;15.15;5.15;;;;;;;26.56;41.72;94893.94;4924741;29;20038;-81
2022/05/28 08:58:15;;;;;;;21.45;5.88;;;;;;;26.89;40.91;94909.25;4924004;29;20055;-82
2022/05/28 09:00:49;;;;;;;15.23;5.00;;;;;;;26.76;40.79;94906.09;4924644;29;20067;-81
2022/05/28 09:03:33;;;;;;;20.23;5.38;;;;;;;26.95;40.69;94905.00;4924758;29;20054;-82
2022/05/28 09:06:06;;;;;;;18.17;4.93;;;;;;;26.89;40.94;94887.47;4925458;29;20091;-82
2022/05/28 09:08:49;;;;;;;19.83;5.78;;;;;;;26.87;40.44;94901.47;4942850;29;20043;-82
2022/05/28 09:11:21;;;;;;;17.85;5.15;;;;;;;26.86;41.49;94904.56;4924902;29;20515;-82
2022/05/28 09:13:50;;;;;;;22.63;5.03;;;;;;;26.59;42.50;94835.31;4924544;29;20884;-82
2022/05/28 09:16:37;;;;;;;19.42;5.72;;;;;;;26.79;42.37;94844.69;4924606;29;20093;-82
2022/05/28 09:19:08;;;;;;;18.13;5.43;;;;;;;26.73;40.48;94813.59;4924803;29;20049;-82
2022/05/28 09:21:34;;;;;;;15.25;4.68;;;;;;;27.09;40.87;94849.81;4940613;29;20592;-82
2022/05/28 09:24:06;;;;;;;16.88;5.18;;;;;;;27.48;41.07;94877.09;4924363;29;20047;-82
2022/05/28 09:26:36;;;;;;;22.35;5.72;;;;;;;27.19;42.16;94838.19;4942801;29;20548;-82
2022/05/28 09:29:17;;;;;;;19.38;5.53;;;;;;;27.48;41.99;94872.44;4924100;29;20514;-82
2022/05/28 09:31:42;;;;;;;17.20;5.75;;;;;;;27.68;41.21;94864.69;4924372;28;20090;-81
2022/05/28 09:34:35;;;;;;;22.52;5.30;;;;;;;27.84;40.75;94867.03;4942505;29;20039;-81
2022/05/28 09:37:10;;;;;;;19.90;5.93;;;;;;;27.92;41.65;94863.88;4924911;29;20161;-83
2022/05/28 09:40:17;;;;;;;18.88;5.18;;;;;;;27.94;40.56;94866.22;4924535;28;20039;-81
2022/05/28 09:43:03;;;;;;;18.17;5.57;;;;;;;28.12;41.00;94852.56;4882741;29;20499;-81
2022/05/28 09:45:41;;;;;;;24.23;6.05;;;;;;;28.53;38.58;94793.63;4923863;28;20050;-81
2022/05/28 09:48:17;;;;;;;15.95;5.32;;;;;;;29.55;37.69;94844.09;4940959;29;20046;-81
2022/05/28 09:50:43;;;;;;;14.50;4.68;;;;;;;30.56;35.43;94828.28;4923269;29;20489;-81
2022/05/28 09:55:55;;;;;;;15.50;5.82;;;;;;;31.22;32.92;94834.03;4933763;29;20046;-81
2022/05/28 09:58:24;;;;;;;26.77;6.82;;;;;;;31.24;33.48;94811.72;4923755;29;20058;-82
2022/05/28 10:00:50;;;;;;;21.75;5.72;;;;;;;31.69;34.27;94825.88;4923617;29;20346;-81
2022/05/28 10:06:14;;;;;;;17.50;6.25;;;;;;;32.18;33.18;94825.03;4941427;28;20473;-81
2022/05/28 10:08:39;;;;;;;14.43;5.60;;;;;;;31.55;33.92;94790.47;4923383;29;20326;-81
2022/05/28 10:11:06;;;;;;;24.67;6.28;;;;;;;31.99;33.58;94823.00;4941142;29;20073;-81
2022/05/28 10:13:47;;;;;;;23.20;6.00;;;;;;;31.60;33.88;94820.13;4923215;29;20042;-81
2022/05/28 10:16:16;;;;;;;20.98;6.20;;;;;;;31.59;34.66;94821.31;4923140;29;20043;-81
2022/05/28 10:18:51;;;;;;;17.10;6.65;;;;;;;31.26;33.50;94798.38;4940902;29;20514;-81
2022/05/28 10:21:20;;;;;;;23.27;5.95;;;;;;;30.98;33.59;94777.63;4923525;29;20477;-81
2022/05/28 10:23:55;;;;;;;17.23;5.93;;;;;;;31.26;35.12;94815.59;4923276;29;20102;-81
2022/05/28 10:26:30;;;;;;;21.05;6.38;;;;;;;30.78;36.07;94766.59;4940906;29;20069;-82
2022/05/28 10:29:02;;;;;;;15.57;6.07;;;;;;;31.24;35.71;94807.00;4941192;29;20055;-81
2022/05/28 10:31:40;;;;;;;15.25;5.88;;;;;;;30.78;35.75;94713.78;4923600;28;21011;-81
2022/05/28 10:34:07;;;;;;;22.52;5.97;;;;;;;31.20;34.41;94802.78;4940865;29;20082;-82
2022/05/28 10:36:35;;;;;;;19.35;5.95;;;;;;;30.81;35.10;94770.47;4923019;29;20573;-82
2022/05/28 10:39:12;;;;;;;21.13;6.15;;;;;;;31.16;35.30;94794.59;4914168;29;20047;-81
2022/05/28 10:41:40;;;;;;;24.60;7.22;;;;;;;31.17;35.44;94790.69;4917007;28;20051;-81
2022/05/28 10:44:06;;;;;;;23.88;6.60;;;;;;;30.14;36.74;94671.66;4922699;29;20141;-82
2022/05/28 10:46:34;;;;;;;19.50;6.30;;;;;;;31.04;36.48;94793.19;4923162;29;20876;-81
2022/05/28 10:49:09;;;;;;;23.90;6.45;;;;;;;31.28;35.97;94787.78;4940651;29;20039;-82
2022/05/28 10:52:21;;;;;;;17.35;6.95;;;;;;;30.93;36.51;94726.09;4902532;29;20047;-81
2022/05/28 10:55:03;;;;;;;14.23;6.15;;;;;;;31.24;34.92;94708.38;4912471;29;20470;-81
2022/05/28 10:57:28;;;;;;;17.88;6.60;;;;;;;32.23;34.17;94782.59;4922888;29;20111;-81
2022/05/28 11:00:08;;;;;;;20.23;5.40;;;;;;;32.65;32.18;94780.19;4923436;29;20095;-81
2022/05/28 11:02:39;;;;;;;16.30;5.93;;;;;;;32.74;33.57;94775.69;4941017;29;20517;-82
2022/05/28 11:05:26;;;;;;;13.60;4.93;;;;;;;33.28;32.45;94772.53;4940898;29;20166;-82
2022/05/28 11:08:31;;;;;;;20.88;6.20;;;;;;;33.34;31.55;94752.34;4940634;29;20561;-81
2022/05/28 11:11:22;;;;;;;19.95;5.47;;;;;;;33.94;31.20;94771.28;4923236;29;20054;-81
2022/05/28 11:14:07;;;;;;;;;;;;;;;33.74;30.97;94767.88;4923510;29;20046;-81
2022/05/28 11:16:38;;;;;;;19.17;5.93;;;;;;;33.91;29.97;94759.16;4921942;29;19929;-81
2022/05/28 11:19:25;;;;;;;24.55;5.60;;;;;;;34.00;29.57;94764.03;4923036;29;20058;-82
2022/05/28 11:22:18;;;;;;;15.85;6.28;;;;;;;33.90;29.82;94751.34;4940096;28;20046;-81
2022/05/28 11:24:55;;;;;;;15.13;5.18;;;;;;;33.85;29.33;94749.13;4940398;29;20117;-81
2022/05/28 11:27:41;;;;;;;18.73;5.97;;;;;;;33.46;29.83;94741.84;4941047;29;20429;-81
2022/05/28 11:30:17;;;;;;;20.25;5.28;;;;;;;32.53;29.63;94661.63;4940226;29;20513;-81
2022/05/28 11:32:52;;;;;;;20.73;4.95;;;;;;;33.10;29.74;94734.47;4939949;29;20039;-82
2022/05/28 11:35:38;;;;;;;15.63;5.30;;;;;;;32.72;30.36;94736.16;4922876;29;20570;-81
2022/05/28 11:38:14;;;;;;;18.90;5.93;;;;;;;32.53;31.44;94735.72;4917605;29;20043;-81
2022/05/28 11:40:53;;;;;;;14.98;5.72;;;;;;;32.52;31.55;94725.94;4914171;29;20803;-81
2022/05/28 11:43:30;;;;;;;21.45;5.22;;;;;;;32.28;32.25;94712.75;4939470;29;20407;-81
2022/05/28 11:46:09;;;;;;;13.77;4.97;;;;;;;32.17;30.83;94730.22;4907022;29;20043;-81